Главная страница
METAR-TAF:

METAR-TAF

Аэропорты :

Олбани, Нью-Йорк, США

широта: 42-44-53N, долгота: 073-48-06W, высота над уровнем моря: 87 м

Текущие метеонаблюдения

Эта сводка был подготовлена 57 минут назад, в 20:51 UTC
Ветер 5 Узел от северо-северо-восточный
Температура 14°C
Влажность 38%
Давление 1027 hPa
Видимость: 16.1 км
небольшая облачность на высоте 5500 фута

METAR: KALB 192051Z 02005KT 10SM FEW055 14/00 A3033 RMK AO2 SLP273 T01390000 56012

Время: 17:48 (21:48 UTC)

Прогноз

Эта сводка был подготовлена 4 часа и 28 минут назад, в 17:20 UTC
Прогноз действительный с 19-го 18 UTC до 20-го 18 UTC
Ветер 6 Узел от северный
Видимость: 10 км
ясное небо
С 20-го 0000 UTC
Ветер Узел от северный
Видимость: 10 км
ясное небо
С 20-го 1400 UTC
Ветер 5 Узел от северный
Видимость: 10 км
ясное небо

TAF: KALB 191720Z 1918/2018 35006KT P6SM SKC FM200000 00000KT P6SM SKC FM201400 01005KT P6SM SKC

Метеонаблюдения и прогнозы для более 4000 аэропортов (сводки METAR и TAF).

Имеющиеся станции представлены на карте желтыми и красными точками.

Чтобы увидеть название станции, наведите на нее мышь.

Затем щелкните, чтобы увидеть метеонаблюдения и метеопрогнозы.

Управление картой: чтобы увеличить масштаб, щелкните зеленые кнопки с черным крестиком; чтобы уменьшить масштаб, щелкните зеленую кнопку с тире; для просмотра соседних карт щелкайте зеленые стрелки.


METAR-TAF: